CZEM/ZEM METAR and TAF weather

Enter ICAO airport designator
Station Type Date Time Source
CZEM METAR 2018/10/17 17:00 UTC NOAA

CZEM 171700Z 30016G24KT 10SM VCSH BKN022 BKN040 01/M02 A2964 RMK SC6SC1 LAST STFD OBS/NEXT 181300 UTC SLP039


Station Type Date Time Source
CZEM Decoded METAR 2018/10/17 17:00 UTC NOAA

Eastmain River Airport, Canada (CZEM) 52-14N 078-31W
Oct 17, 2018 - 01:00 PM EDT / 2018.10.17 1700 UTC
Wind: from the WNW (300 degrees) at 18 MPH (16 KT) gusting to 28 MPH (24 KT):0
Visibility: 10 mile(s):0
Sky conditions: mostly cloudy
Weather: showers in the vicinity
Temperature: 33 F (1 C)
Windchill: 21 F (-6 C):1
Dew Point: 28 F (-2 C)
Relative Humidity: 80%
Pressure (altimeter): 29.64 in. Hg (1003 hPa)
ob: CZEM 171700Z 30016G24KT 10SM VCSH BKN022 BKN040 01/M02 A2964 RMK SC6SC1 LAST STFD OBS/NEXT 181300 UTC SLP039
cycle: 17

Station Type Date Time Source
CZEM TAF UTC NOAA

Error!


Example: see airport list